MMTP/TAP METAR and TAF weather

Enter ICAO airport designator
Station Type Date Time Source
MMTP METAR 2020/09/20 01:44 UTC NOAA

MMTP 200144Z 15002KT 7SM -RA BKN020TCU 25/25 A2986 RMK 8/200


Station Type Date Time Source
MMTP Decoded METAR 2020/09/20 01:44 UTC NOAA

Tapachula , Mexico (MMTP) 14-47N 092-23W
Sep 19, 2020 - 09:44 PM EDT / 2020.09.20 0144 UTC
Wind: from the SSE (150 degrees) at 2 MPH (2 KT):0
Visibility: 7 mile(s):0
Sky conditions: mostly cloudy
Weather: light rain; Towering cumulus clouds observed
Temperature: 77 F (25 C)
Dew Point: 77 F (25 C)
Relative Humidity: 100%
Pressure (altimeter): 29.86 in. Hg (1011 hPa)
ob: MMTP 200144Z 15002KT 7SM -RA BKN020TCU 25/25 A2986 RMK 8/200
cycle: 1

Station Type Date Time Source
MMTP TAF 2020/09/20 06:11 UTC NOAA

TAF MMTP 200504Z 2006/2112 00000KT P6SM BKN020
FM201600 32010KT P6SM SCT020 BKN120
TEMPO 2021/2101 5SM TSRA BKN020CB OVC120

Example: see airport list